sensor_id;sensor_type;location;lat;lon;timestamp;P1;durP1;ratioP1;P2;durP2;ratioP2
55678;SDS011;41573;51.446;-2.018;2023-03-29T00:01:01;8.77;;;3.92;;
55678;SDS011;41573;51.446;-2.018;2023-03-29T00:03:30;7.63;;;3.85;;
55678;SDS011;41573;51.446;-2.018;2023-03-29T00:06:01;7.95;;;4.95;;
55678;SDS011;41573;51.446;-2.018;2023-03-29T00:08:31;5.80;;;3.03;;
55678;SDS011;41573;51.446;-2.018;2023-03-29T00:11:02;10.43;;;3.35;;
55678;SDS011;41573;51.446;-2.018;2023-03-29T00:13:27;9.48;;;3.47;;
55678;SDS011;41573;51.446;-2.018;2023-03-29T00:15:53;9.32;;;3.88;;
55678;SDS011;41573;51.446;-2.018;2023-03-29T00:18:20;10.35;;;3.50;;
55678;SDS011;41573;51.446;-2.018;2023-03-29T00:20:52;9.43;;;3.92;;
55678;SDS011;41573;51.446;-2.018;2023-03-29T00:23:19;8.13;;;3.42;;
55678;SDS011;41573;51.446;-2.018;2023-03-29T00:25:46;8.30;;;3.17;;
55678;SDS011;41573;51.446;-2.018;2023-03-29T00:28:12;8.68;;;3.53;;
55678;SDS011;41573;51.446;-2.018;2023-03-29T00:30:38;10.35;;;3.50;;
55678;SDS011;41573;51.446;-2.018;2023-03-29T00:33:04;6.90;;;2.65;;
55678;SDS011;41573;51.446;-2.018;2023-03-29T00:35:30;7.90;;;2.85;;
55678;SDS011;41573;51.446;-2.018;2023-03-29T00:37:55;13.70;;;3.42;;
55678;SDS011;41573;51.446;-2.018;2023-03-29T00:40:21;6.93;;;3.00;;
55678;SDS011;41573;51.446;-2.018;2023-03-29T00:42:47;7.05;;;3.13;;
55678;SDS011;41573;51.446;-2.018;2023-03-29T00:45:17;7.70;;;3.10;;
55678;SDS011;41573;51.446;-2.018;2023-03-29T00:47:45;6.47;;;2.83;;
55678;SDS011;41573;51.446;-2.018;2023-03-29T00:50:20;7.28;;;2.65;;
55678;SDS011;41573;51.446;-2.018;2023-03-29T00:52:52;5.78;;;2.33;;
55678;SDS011;41573;51.446;-2.018;2023-03-29T00:55:23;11.88;;;3.25;;
55678;SDS011;41573;51.446;-2.018;2023-03-29T00:57:51;8.52;;;2.35;;
55678;SDS011;41573;51.446;-2.018;2023-03-29T01:00:21;3.65;;;2.13;;
55678;SDS011;41573;51.446;-2.018;2023-03-29T01:02:52;6.82;;;2.25;;
55678;SDS011;41573;51.446;-2.018;2023-03-29T01:05:25;6.15;;;2.47;;
55678;SDS011;41573;51.446;-2.018;2023-03-29T01:08:02;7.88;;;3.30;;
55678;SDS011;41573;51.446;-2.018;2023-03-29T01:13:19;9.02;;;2.80;;
55678;SDS011;41573;51.446;-2.018;2023-03-29T01:15:51;3.78;;;2.03;;
55678;SDS011;41573;51.446;-2.018;2023-03-29T01:18:18;5.35;;;2.45;;
55678;SDS011;41573;51.446;-2.018;2023-03-29T01:23:53;5.00;;;1.95;;
55678;SDS011;41573;51.446;-2.018;2023-03-29T01:29:41;6.30;;;2.53;;
55678;SDS011;41573;51.446;-2.018;2023-03-29T01:35:44;4.93;;;2.22;;
55678;SDS011;41573;51.446;-2.018;2023-03-29T01:38:16;7.97;;;2.70;;
55678;SDS011;41573;51.446;-2.018;2023-03-29T01:40:45;8.15;;;2.42;;
55678;SDS011;41573;51.446;-2.018;2023-03-29T01:43:28;6.10;;;2.95;;
55678;SDS011;41573;51.446;-2.018;2023-03-29T01:46:00;4.47;;;2.25;;
55678;SDS011;41573;51.446;-2.018;2023-03-29T01:48:35;5.97;;;2.38;;
55678;SDS011;41573;51.446;-2.018;2023-03-29T01:54:02;7.38;;;3.38;;
55678;SDS011;41573;51.446;-2.018;2023-03-29T01:56:28;4.50;;;2.30;;
55678;SDS011;41573;51.446;-2.018;2023-03-29T01:59:02;2.80;;;1.85;;
55678;SDS011;41573;51.446;-2.018;2023-03-29T02:01:39;5.65;;;1.95;;
55678;SDS011;41573;51.446;-2.018;2023-03-29T02:04:13;7.30;;;2.63;;
55678;SDS011;41573;51.446;-2.018;2023-03-29T02:06:51;4.15;;;1.90;;
55678;SDS011;41573;51.446;-2.018;2023-03-29T02:09:19;5.13;;;1.92;;
55678;SDS011;41573;51.446;-2.018;2023-03-29T02:11:46;5.20;;;2.10;;
55678;SDS011;41573;51.446;-2.018;2023-03-29T02:14:14;3.45;;;2.00;;
55678;SDS011;41573;51.446;-2.018;2023-03-29T02:16:39;6.85;;;1.65;;
55678;SDS011;41573;51.446;-2.018;2023-03-29T02:19:05;7.68;;;1.65;;
55678;SDS011;41573;51.446;-2.018;2023-03-29T02:21:42;5.47;;;2.07;;
55678;SDS011;41573;51.446;-2.018;2023-03-29T02:24:16;2.78;;;1.35;;
55678;SDS011;41573;51.446;-2.018;2023-03-29T02:26:47;9.88;;;2.47;;
55678;SDS011;41573;51.446;-2.018;2023-03-29T02:29:14;5.80;;;1.33;;
55678;SDS011;41573;51.446;-2.018;2023-03-29T02:31:41;4.30;;;1.75;;
55678;SDS011;41573;51.446;-2.018;2023-03-29T02:34:19;3.33;;;1.50;;
55678;SDS011;41573;51.446;-2.018;2023-03-29T02:36:55;4.55;;;1.83;;
55678;SDS011;41573;51.446;-2.018;2023-03-29T02:39:27;1.67;;;1.08;;
55678;SDS011;41573;51.446;-2.018;2023-03-29T02:41:57;5.05;;;1.50;;
55678;SDS011;41573;51.446;-2.018;2023-03-29T02:44:24;2.15;;;1.38;;
55678;SDS011;41573;51.446;-2.018;2023-03-29T02:47:37;7.13;;;2.15;;
55678;SDS011;41573;51.446;-2.018;2023-03-29T02:49:47;2.60;;;1.33;;
55678;SDS011;41573;51.446;-2.018;2023-03-29T02:52:21;2.85;;;1.40;;
55678;SDS011;41573;51.446;-2.018;2023-03-29T02:54:49;4.00;;;1.58;;
55678;SDS011;41573;51.446;-2.018;2023-03-29T02:57:19;2.90;;;1.10;;
55678;SDS011;41573;51.446;-2.018;2023-03-29T02:59:50;2.85;;;1.30;;
55678;SDS011;41573;51.446;-2.018;2023-03-29T03:02:18;4.00;;;1.40;;
55678;SDS011;41573;51.446;-2.018;2023-03-29T03:04:44;2.83;;;1.30;;
55678;SDS011;41573;51.446;-2.018;2023-03-29T03:07:09;2.97;;;1.40;;
55678;SDS011;41573;51.446;-2.018;2023-03-29T03:09:35;3.45;;;1.52;;
55678;SDS011;41573;51.446;-2.018;2023-03-29T03:12:00;2.35;;;1.42;;
55678;SDS011;41573;51.446;-2.018;2023-03-29T03:14:28;5.70;;;1.38;;
55678;SDS011;41573;51.446;-2.018;2023-03-29T03:16:54;5.57;;;1.88;;
55678;SDS011;41573;51.446;-2.018;2023-03-29T03:19:19;4.90;;;1.33;;
55678;SDS011;41573;51.446;-2.018;2023-03-29T03:21:45;2.30;;;1.30;;
55678;SDS011;41573;51.446;-2.018;2023-03-29T03:24:11;3.03;;;1.50;;
55678;SDS011;41573;51.446;-2.018;2023-03-29T03:26:37;2.80;;;1.38;;
55678;SDS011;41573;51.446;-2.018;2023-03-29T03:29:03;7.07;;;1.63;;
55678;SDS011;41573;51.446;-2.018;2023-03-29T03:31:28;2.47;;;1.55;;
55678;SDS011;41573;51.446;-2.018;2023-03-29T03:33:54;2.58;;;1.00;;
55678;SDS011;41573;51.446;-2.018;2023-03-29T03:36:20;1.20;;;1.00;;
55678;SDS011;41573;51.446;-2.018;2023-03-29T03:38:53;2.28;;;1.38;;
55678;SDS011;41573;51.446;-2.018;2023-03-29T03:41:20;6.85;;;1.60;;
55678;SDS011;41573;51.446;-2.018;2023-03-29T03:43:46;3.20;;;1.48;;
55678;SDS011;41573;51.446;-2.018;2023-03-29T03:46:16;6.10;;;1.70;;
55678;SDS011;41573;51.446;-2.018;2023-03-29T03:48:42;2.05;;;1.52;;
55678;SDS011;41573;51.446;-2.018;2023-03-29T03:51:08;3.70;;;1.77;;
55678;SDS011;41573;51.446;-2.018;2023-03-29T03:53:34;2.45;;;1.85;;
55678;SDS011;41573;51.446;-2.018;2023-03-29T03:55:59;2.55;;;1.50;;
55678;SDS011;41573;51.446;-2.018;2023-03-29T03:58:26;2.60;;;1.60;;
55678;SDS011;41573;51.446;-2.018;2023-03-29T04:00:51;2.05;;;1.25;;
55678;SDS011;41573;51.446;-2.018;2023-03-29T04:03:17;3.22;;;1.40;;
55678;SDS011;41573;51.446;-2.018;2023-03-29T04:05:43;3.60;;;1.70;;
55678;SDS011;41573;51.446;-2.018;2023-03-29T04:08:10;2.28;;;1.45;;
55678;SDS011;41573;51.446;-2.018;2023-03-29T04:10:37;2.63;;;1.55;;
55678;SDS011;41573;51.446;-2.018;2023-03-29T04:13:03;6.60;;;1.90;;
55678;SDS011;41573;51.446;-2.018;2023-03-29T04:15:30;3.97;;;1.83;;
55678;SDS011;41573;51.446;-2.018;2023-03-29T04:17:57;4.15;;;1.55;;
55678;SDS011;41573;51.446;-2.018;2023-03-29T04:20:23;3.30;;;1.80;;
55678;SDS011;41573;51.446;-2.018;2023-03-29T04:22:50;4.25;;;1.65;;
55678;SDS011;41573;51.446;-2.018;2023-03-29T04:25:16;4.45;;;1.52;;
55678;SDS011;41573;51.446;-2.018;2023-03-29T04:27:42;3.17;;;2.00;;
55678;SDS011;41573;51.446;-2.018;2023-03-29T04:30:08;3.30;;;1.92;;
55678;SDS011;41573;51.446;-2.018;2023-03-29T04:32:35;2.92;;;1.80;;
55678;SDS011;41573;51.446;-2.018;2023-03-29T04:35:00;4.43;;;1.95;;
55678;SDS011;41573;51.446;-2.018;2023-03-29T04:37:26;6.97;;;2.10;;
55678;SDS011;41573;51.446;-2.018;2023-03-29T04:39:53;3.58;;;1.77;;
55678;SDS011;41573;51.446;-2.018;2023-03-29T04:42:19;4.63;;;2.08;;
55678;SDS011;41573;51.446;-2.018;2023-03-29T04:44:45;10.32;;;2.55;;
55678;SDS011;41573;51.446;-2.018;2023-03-29T04:47:10;4.82;;;1.33;;
55678;SDS011;41573;51.446;-2.018;2023-03-29T04:49:39;4.05;;;1.98;;
55678;SDS011;41573;51.446;-2.018;2023-03-29T04:52:05;4.05;;;1.85;;
55678;SDS011;41573;51.446;-2.018;2023-03-29T04:54:32;6.05;;;2.08;;
55678;SDS011;41573;51.446;-2.018;2023-03-29T04:56:57;4.03;;;1.73;;
55678;SDS011;41573;51.446;-2.018;2023-03-29T04:59:23;3.92;;;2.05;;
55678;SDS011;41573;51.446;-2.018;2023-03-29T05:01:48;4.35;;;2.10;;
55678;SDS011;41573;51.446;-2.018;2023-03-29T05:04:13;6.43;;;2.10;;
55678;SDS011;41573;51.446;-2.018;2023-03-29T05:06:39;7.03;;;1.83;;
55678;SDS011;41573;51.446;-2.018;2023-03-29T05:09:05;2.85;;;1.48;;
55678;SDS011;41573;51.446;-2.018;2023-03-29T05:11:31;4.97;;;1.88;;
55678;SDS011;41573;51.446;-2.018;2023-03-29T05:13:57;2.97;;;1.67;;
55678;SDS011;41573;51.446;-2.018;2023-03-29T05:16:26;6.47;;;2.25;;
55678;SDS011;41573;51.446;-2.018;2023-03-29T05:18:54;7.18;;;2.47;;
55678;SDS011;41573;51.446;-2.018;2023-03-29T05:21:20;2.25;;;1.70;;
55678;SDS011;41573;51.446;-2.018;2023-03-29T05:23:46;3.67;;;1.77;;
55678;SDS011;41573;51.446;-2.018;2023-03-29T05:26:12;9.75;;;2.65;;
55678;SDS011;41573;51.446;-2.018;2023-03-29T05:28:39;3.45;;;1.80;;
55678;SDS011;41573;51.446;-2.018;2023-03-29T05:31:05;4.25;;;1.70;;
55678;SDS011;41573;51.446;-2.018;2023-03-29T05:33:31;4.43;;;1.77;;
55678;SDS011;41573;51.446;-2.018;2023-03-29T05:38:26;5.05;;;1.92;;
55678;SDS011;41573;51.446;-2.018;2023-03-29T05:40:52;3.35;;;2.13;;
55678;SDS011;41573;51.446;-2.018;2023-03-29T05:43:17;4.25;;;2.13;;
55678;SDS011;41573;51.446;-2.018;2023-03-29T05:45:42;3.08;;;1.92;;
55678;SDS011;41573;51.446;-2.018;2023-03-29T05:48:08;2.83;;;1.88;;
55678;SDS011;41573;51.446;-2.018;2023-03-29T05:50:34;6.35;;;1.85;;
55678;SDS011;41573;51.446;-2.018;2023-03-29T05:53:01;3.85;;;1.90;;
55678;SDS011;41573;51.446;-2.018;2023-03-29T05:55:27;4.70;;;2.20;;
55678;SDS011;41573;51.446;-2.018;2023-03-29T05:57:53;4.30;;;2.00;;
55678;SDS011;41573;51.446;-2.018;2023-03-29T06:00:19;4.78;;;1.80;;
55678;SDS011;41573;51.446;-2.018;2023-03-29T06:02:48;3.72;;;1.70;;
55678;SDS011;41573;51.446;-2.018;2023-03-29T06:05:15;5.25;;;1.65;;
55678;SDS011;41573;51.446;-2.018;2023-03-29T06:07:40;4.88;;;1.58;;
55678;SDS011;41573;51.446;-2.018;2023-03-29T06:10:07;3.85;;;1.50;;
55678;SDS011;41573;51.446;-2.018;2023-03-29T06:12:34;2.90;;;1.58;;
55678;SDS011;41573;51.446;-2.018;2023-03-29T06:15:00;3.80;;;1.80;;
55678;SDS011;41573;51.446;-2.018;2023-03-29T06:17:29;6.47;;;2.45;;
55678;SDS011;41573;51.446;-2.018;2023-03-29T06:19:55;3.97;;;1.88;;
55678;SDS011;41573;51.446;-2.018;2023-03-29T06:22:22;4.28;;;1.80;;
55678;SDS011;41573;51.446;-2.018;2023-03-29T06:24:47;3.55;;;1.77;;
55678;SDS011;41573;51.446;-2.018;2023-03-29T06:27:13;3.90;;;1.75;;
55678;SDS011;41573;51.446;-2.018;2023-03-29T06:29:38;3.15;;;1.45;;
55678;SDS011;41573;51.446;-2.018;2023-03-29T06:32:04;3.03;;;1.88;;
55678;SDS011;41573;51.446;-2.018;2023-03-29T06:34:30;3.22;;;1.70;;
55678;SDS011;41573;51.446;-2.018;2023-03-29T06:36:55;6.20;;;2.05;;
55678;SDS011;41573;51.446;-2.018;2023-03-29T06:39:21;4.68;;;2.03;;
55678;SDS011;41573;51.446;-2.018;2023-03-29T06:41:47;6.97;;;1.95;;
55678;SDS011;41573;51.446;-2.018;2023-03-29T06:44:13;3.88;;;1.63;;
55678;SDS011;41573;51.446;-2.018;2023-03-29T06:46:39;5.85;;;2.35;;
55678;SDS011;41573;51.446;-2.018;2023-03-29T06:49:04;7.45;;;1.92;;
55678;SDS011;41573;51.446;-2.018;2023-03-29T06:51:30;4.93;;;1.98;;
55678;SDS011;41573;51.446;-2.018;2023-03-29T06:53:55;3.72;;;1.80;;
55678;SDS011;41573;51.446;-2.018;2023-03-29T06:56:21;5.20;;;1.98;;
55678;SDS011;41573;51.446;-2.018;2023-03-29T06:58:47;4.45;;;1.63;;
55678;SDS011;41573;51.446;-2.018;2023-03-29T07:01:13;4.35;;;1.77;;
55678;SDS011;41573;51.446;-2.018;2023-03-29T07:03:38;3.75;;;1.55;;
55678;SDS011;41573;51.446;-2.018;2023-03-29T07:06:05;3.03;;;1.45;;
55678;SDS011;41573;51.446;-2.018;2023-03-29T07:08:36;4.25;;;1.77;;
55678;SDS011;41573;51.446;-2.018;2023-03-29T07:11:07;2.35;;;1.45;;
55678;SDS011;41573;51.446;-2.018;2023-03-29T07:13:40;3.22;;;1.40;;
55678;SDS011;41573;51.446;-2.018;2023-03-29T07:16:07;2.95;;;1.60;;
55678;SDS011;41573;51.446;-2.018;2023-03-29T07:18:36;3.45;;;1.90;;
55678;SDS011;41573;51.446;-2.018;2023-03-29T07:21:03;2.83;;;2.17;;
55678;SDS011;41573;51.446;-2.018;2023-03-29T07:23:30;6.97;;;1.45;;
55678;SDS011;41573;51.446;-2.018;2023-03-29T07:25:55;2.22;;;1.17;;
55678;SDS011;41573;51.446;-2.018;2023-03-29T07:28:20;3.00;;;1.10;;
55678;SDS011;41573;51.446;-2.018;2023-03-29T07:30:46;3.05;;;1.48;;
55678;SDS011;41573;51.446;-2.018;2023-03-29T07:33:12;2.95;;;1.65;;
55678;SDS011;41573;51.446;-2.018;2023-03-29T07:35:37;2.10;;;1.05;;
55678;SDS011;41573;51.446;-2.018;2023-03-29T07:38:07;3.15;;;1.33;;
55678;SDS011;41573;51.446;-2.018;2023-03-29T07:40:33;2.78;;;1.40;;
55678;SDS011;41573;51.446;-2.018;2023-03-29T07:42:58;1.83;;;1.00;;
55678;SDS011;41573;51.446;-2.018;2023-03-29T07:45:31;3.33;;;1.42;;
55678;SDS011;41573;51.446;-2.018;2023-03-29T07:47:57;3.05;;;1.52;;
55678;SDS011;41573;51.446;-2.018;2023-03-29T07:50:23;3.17;;;1.40;;
55678;SDS011;41573;51.446;-2.018;2023-03-29T07:52:50;2.33;;;1.38;;
55678;SDS011;41573;51.446;-2.018;2023-03-29T07:55:15;3.30;;;1.70;;
55678;SDS011;41573;51.446;-2.018;2023-03-29T07:57:41;2.38;;;1.48;;
55678;SDS011;41573;51.446;-2.018;2023-03-29T08:00:11;2.08;;;1.33;;
55678;SDS011;41573;51.446;-2.018;2023-03-29T08:02:44;2.05;;;1.33;;
55678;SDS011;41573;51.446;-2.018;2023-03-29T08:05:11;2.95;;;1.60;;
55678;SDS011;41573;51.446;-2.018;2023-03-29T08:07:39;2.40;;;1.30;;
55678;SDS011;41573;51.446;-2.018;2023-03-29T08:10:11;3.17;;;1.48;;
55678;SDS011;41573;51.446;-2.018;2023-03-29T08:12:44;2.55;;;1.38;;
55678;SDS011;41573;51.446;-2.018;2023-03-29T08:15:10;1.42;;;1.17;;
55678;SDS011;41573;51.446;-2.018;2023-03-29T08:17:37;1.63;;;0.85;;
55678;SDS011;41573;51.446;-2.018;2023-03-29T08:20:03;1.20;;;1.02;;
55678;SDS011;41573;51.446;-2.018;2023-03-29T08:22:33;2.47;;;1.00;;
55678;SDS011;41573;51.446;-2.018;2023-03-29T08:24:59;0.60;;;0.60;;
55678;SDS011;41573;51.446;-2.018;2023-03-29T08:27:41;0.55;;;0.55;;
55678;SDS011;41573;51.446;-2.018;2023-03-29T08:30:15;0.73;;;0.73;;
55678;SDS011;41573;51.446;-2.018;2023-03-29T08:32:49;0.82;;;0.63;;
55678;SDS011;41573;51.446;-2.018;2023-03-29T08:59:31;1.00;;;0.80;;
55678;SDS011;41573;51.446;-2.018;2023-03-29T09:01:59;1.20;;;0.65;;
55678;SDS011;41573;51.446;-2.018;2023-03-29T09:07:02;1.33;;;0.60;;
55678;SDS011;41573;51.446;-2.018;2023-03-29T09:09:30;2.00;;;0.90;;
55678;SDS011;41573;51.446;-2.018;2023-03-29T09:14:51;0.85;;;0.57;;
55678;SDS011;41573;51.446;-2.018;2023-03-29T09:29:43;1.88;;;1.20;;
55678;SDS011;41573;51.446;-2.018;2023-03-29T09:35:41;0.63;;;0.63;;
55678;SDS011;41573;51.446;-2.018;2023-03-29T09:38:21;1.02;;;0.70;;
55678;SDS011;41573;51.446;-2.018;2023-03-29T09:40:51;1.50;;;0.70;;
55678;SDS011;41573;51.446;-2.018;2023-03-29T09:43:31;1.40;;;0.93;;
55678;SDS011;41573;51.446;-2.018;2023-03-29T09:46:37;1.48;;;0.98;;
55678;SDS011;41573;51.446;-2.018;2023-03-29T09:49:11;1.50;;;0.82;;
55678;SDS011;41573;51.446;-2.018;2023-03-29T09:51:48;1.70;;;0.80;;
55678;SDS011;41573;51.446;-2.018;2023-03-29T09:54:28;1.77;;;1.10;;
55678;SDS011;41573;51.446;-2.018;2023-03-29T09:56:57;1.65;;;0.90;;
55678;SDS011;41573;51.446;-2.018;2023-03-29T09:59:27;4.00;;;1.40;;
55678;SDS011;41573;51.446;-2.018;2023-03-29T10:02:07;1.45;;;1.33;;
55678;SDS011;41573;51.446;-2.018;2023-03-29T10:04:37;1.92;;;1.00;;
55678;SDS011;41573;51.446;-2.018;2023-03-29T10:07:05;3.63;;;1.20;;
55678;SDS011;41573;51.446;-2.018;2023-03-29T10:09:43;0.90;;;0.77;;
55678;SDS011;41573;51.446;-2.018;2023-03-29T10:12:10;2.50;;;1.20;;
55678;SDS011;41573;51.446;-2.018;2023-03-29T10:14:47;1.90;;;1.15;;
55678;SDS011;41573;51.446;-2.018;2023-03-29T10:17:19;2.13;;;1.10;;
55678;SDS011;41573;51.446;-2.018;2023-03-29T10:19:50;2.13;;;1.15;;
55678;SDS011;41573;51.446;-2.018;2023-03-29T10:22:24;1.38;;;1.02;;
55678;SDS011;41573;51.446;-2.018;2023-03-29T10:24:54;1.27;;;0.95;;
55678;SDS011;41573;51.446;-2.018;2023-03-29T10:27:22;2.08;;;1.15;;
55678;SDS011;41573;51.446;-2.018;2023-03-29T10:30:18;1.48;;;0.90;;
55678;SDS011;41573;51.446;-2.018;2023-03-29T10:33:03;1.63;;;0.90;;
55678;SDS011;41573;51.446;-2.018;2023-03-29T10:35:39;1.85;;;1.20;;
55678;SDS011;41573;51.446;-2.018;2023-03-29T10:38:09;1.48;;;1.05;;
55678;SDS011;41573;51.446;-2.018;2023-03-29T10:40:41;2.80;;;1.30;;
55678;SDS011;41573;51.446;-2.018;2023-03-29T10:43:27;2.08;;;1.13;;
55678;SDS011;41573;51.446;-2.018;2023-03-29T10:46:18;4.45;;;1.75;;
55678;SDS011;41573;51.446;-2.018;2023-03-29T10:49:02;3.25;;;1.42;;
55678;SDS011;41573;51.446;-2.018;2023-03-29T10:51:30;3.35;;;1.30;;
55678;SDS011;41573;51.446;-2.018;2023-03-29T10:53:57;1.85;;;1.02;;
55678;SDS011;41573;51.446;-2.018;2023-03-29T10:56:39;5.15;;;1.70;;
55678;SDS011;41573;51.446;-2.018;2023-03-29T11:10:29;3.63;;;1.63;;
55678;SDS011;41573;51.446;-2.018;2023-03-29T11:13:20;9.70;;;1.73;;
55678;SDS011;41573;51.446;-2.018;2023-03-29T11:16:13;6.47;;;2.00;;
55678;SDS011;41573;51.446;-2.018;2023-03-29T11:23:57;1.80;;;1.20;;
55678;SDS011;41573;51.446;-2.018;2023-03-29T11:26:45;2.92;;;1.83;;
55678;SDS011;41573;51.446;-2.018;2023-03-29T11:29:59;3.85;;;1.35;;
55678;SDS011;41573;51.446;-2.018;2023-03-29T11:38:18;2.08;;;1.20;;
55678;SDS011;41573;51.446;-2.018;2023-03-29T11:41:06;3.47;;;1.48;;
55678;SDS011;41573;51.446;-2.018;2023-03-29T11:47:20;2.75;;;1.13;;
55678;SDS011;41573;51.446;-2.018;2023-03-29T11:53:25;3.63;;;1.60;;
55678;SDS011;41573;51.446;-2.018;2023-03-29T11:56:09;3.30;;;0.85;;
55678;SDS011;41573;51.446;-2.018;2023-03-29T11:58:41;3.05;;;1.10;;
55678;SDS011;41573;51.446;-2.018;2023-03-29T12:01:17;7.65;;;1.77;;
55678;SDS011;41573;51.446;-2.018;2023-03-29T12:04:23;1.60;;;1.15;;
55678;SDS011;41573;51.446;-2.018;2023-03-29T12:09:32;1.55;;;0.93;;
55678;SDS011;41573;51.446;-2.018;2023-03-29T12:12:28;2.67;;;1.30;;
55678;SDS011;41573;51.446;-2.018;2023-03-29T12:15:18;5.38;;;1.23;;
55678;SDS011;41573;51.446;-2.018;2023-03-29T12:21:00;2.78;;;0.98;;
55678;SDS011;41573;51.446;-2.018;2023-03-29T12:23:29;5.25;;;1.60;;
55678;SDS011;41573;51.446;-2.018;2023-03-29T12:40:45;4.22;;;1.48;;
55678;SDS011;41573;51.446;-2.018;2023-03-29T12:46:17;3.97;;;2.10;;
55678;SDS011;41573;51.446;-2.018;2023-03-29T12:48:48;1.85;;;1.02;;
55678;SDS011;41573;51.446;-2.018;2023-03-29T12:51:19;3.25;;;1.75;;
55678;SDS011;41573;51.446;-2.018;2023-03-29T12:53:51;2.20;;;1.23;;
55678;SDS011;41573;51.446;-2.018;2023-03-29T12:56:19;2.83;;;1.52;;
55678;SDS011;41573;51.446;-2.018;2023-03-29T13:01:36;2.97;;;1.48;;
55678;SDS011;41573;51.446;-2.018;2023-03-29T13:04:15;4.85;;;1.98;;
55678;SDS011;41573;51.446;-2.018;2023-03-29T13:09:28;3.53;;;1.48;;
55678;SDS011;41573;51.446;-2.018;2023-03-29T13:14:28;9.63;;;2.05;;
55678;SDS011;41573;51.446;-2.018;2023-03-29T13:17:01;2.78;;;1.20;;
55678;SDS011;41573;51.446;-2.018;2023-03-29T13:19:50;3.08;;;1.20;;
55678;SDS011;41573;51.446;-2.018;2023-03-29T13:25:06;2.95;;;1.40;;
55678;SDS011;41573;51.446;-2.018;2023-03-29T13:39:33;4.13;;;1.77;;
55678;SDS011;41573;51.446;-2.018;2023-03-29T13:42:06;4.80;;;1.23;;
55678;SDS011;41573;51.446;-2.018;2023-03-29T13:44:42;3.20;;;1.48;;
55678;SDS011;41573;51.446;-2.018;2023-03-29T13:49:55;4.72;;;1.35;;
55678;SDS011;41573;51.446;-2.018;2023-03-29T13:52:27;2.83;;;1.13;;
55678;SDS011;41573;51.446;-2.018;2023-03-29T14:00:22;0.90;;;0.85;;
55678;SDS011;41573;51.446;-2.018;2023-03-29T14:02:53;3.17;;;0.80;;
55678;SDS011;41573;51.446;-2.018;2023-03-29T14:05:35;5.13;;;1.27;;
55678;SDS011;41573;51.446;-2.018;2023-03-29T14:10:50;1.00;;;0.73;;
55678;SDS011;41573;51.446;-2.018;2023-03-29T14:13:22;3.08;;;1.15;;
55678;SDS011;41573;51.446;-2.018;2023-03-29T14:15:53;3.42;;;1.40;;
55678;SDS011;41573;51.446;-2.018;2023-03-29T14:18:26;1.88;;;1.00;;
55678;SDS011;41573;51.446;-2.018;2023-03-29T14:20:57;1.08;;;0.98;;
55678;SDS011;41573;51.446;-2.018;2023-03-29T14:23:26;3.90;;;1.08;;
55678;SDS011;41573;51.446;-2.018;2023-03-29T14:28:42;2.08;;;1.15;;
55678;SDS011;41573;51.446;-2.018;2023-03-29T14:31:41;3.03;;;0.77;;
55678;SDS011;41573;51.446;-2.018;2023-03-29T14:34:13;0.73;;;0.70;;
55678;SDS011;41573;51.446;-2.018;2023-03-29T14:36:42;1.08;;;0.82;;
55678;SDS011;41573;51.446;-2.018;2023-03-29T14:42:00;2.42;;;0.88;;
55678;SDS011;41573;51.446;-2.018;2023-03-29T14:44:28;2.05;;;1.00;;
55678;SDS011;41573;51.446;-2.018;2023-03-29T14:46:57;1.25;;;0.70;;
55678;SDS011;41573;51.446;-2.018;2023-03-29T14:49:24;0.80;;;0.80;;
55678;SDS011;41573;51.446;-2.018;2023-03-29T14:51:50;2.38;;;1.25;;
55678;SDS011;41573;51.446;-2.018;2023-03-29T14:54:18;1.40;;;0.88;;
55678;SDS011;41573;51.446;-2.018;2023-03-29T14:56:51;2.47;;;0.90;;
55678;SDS011;41573;51.446;-2.018;2023-03-29T14:59:26;1.10;;;0.90;;
55678;SDS011;41573;51.446;-2.018;2023-03-29T15:01:56;1.00;;;0.90;;
55678;SDS011;41573;51.446;-2.018;2023-03-29T15:04:22;1.27;;;1.00;;
55678;SDS011;41573;51.446;-2.018;2023-03-29T15:06:47;1.45;;;0.88;;
55678;SDS011;41573;51.446;-2.018;2023-03-29T15:09:18;2.55;;;0.90;;
55678;SDS011;41573;51.446;-2.018;2023-03-29T15:35:45;5.18;;;1.58;;
55678;SDS011;41573;51.446;-2.018;2023-03-29T15:38:19;2.65;;;1.52;;
55678;SDS011;41573;51.446;-2.018;2023-03-29T15:40:47;8.00;;;1.85;;
55678;SDS011;41573;51.446;-2.018;2023-03-29T15:43:12;8.00;;;2.45;;
55678;SDS011;41573;51.446;-2.018;2023-03-29T15:45:44;5.57;;;1.80;;
55678;SDS011;41573;51.446;-2.018;2023-03-29T15:48:17;4.28;;;1.80;;
55678;SDS011;41573;51.446;-2.018;2023-03-29T15:50:47;8.82;;;2.53;;
55678;SDS011;41573;51.446;-2.018;2023-03-29T15:53:13;5.20;;;1.77;;
55678;SDS011;41573;51.446;-2.018;2023-03-29T15:55:49;3.53;;;1.55;;
55678;SDS011;41573;51.446;-2.018;2023-03-29T15:58:18;8.15;;;2.50;;
55678;SDS011;41573;51.446;-2.018;2023-03-29T16:03:19;2.75;;;1.55;;
55678;SDS011;41573;51.446;-2.018;2023-03-29T16:05:46;4.10;;;1.80;;
55678;SDS011;41573;51.446;-2.018;2023-03-29T16:08:12;6.65;;;2.10;;
55678;SDS011;41573;51.446;-2.018;2023-03-29T16:10:38;5.40;;;2.28;;
55678;SDS011;41573;51.446;-2.018;2023-03-29T16:13:08;3.50;;;1.58;;
55678;SDS011;41573;51.446;-2.018;2023-03-29T16:15:37;4.60;;;1.75;;
55678;SDS011;41573;51.446;-2.018;2023-03-29T16:18:04;7.55;;;1.70;;
55678;SDS011;41573;51.446;-2.018;2023-03-29T16:20:31;4.22;;;2.10;;
55678;SDS011;41573;51.446;-2.018;2023-03-29T16:22:59;3.80;;;1.58;;
55678;SDS011;41573;51.446;-2.018;2023-03-29T16:25:33;4.10;;;1.77;;
55678;SDS011;41573;51.446;-2.018;2023-03-29T16:28:05;4.78;;;1.63;;
55678;SDS011;41573;51.446;-2.018;2023-03-29T16:30:33;5.97;;;1.83;;
55678;SDS011;41573;51.446;-2.018;2023-03-29T16:32:59;2.58;;;1.60;;
55678;SDS011;41573;51.446;-2.018;2023-03-29T16:35:30;4.85;;;1.90;;
55678;SDS011;41573;51.446;-2.018;2023-03-29T16:37:57;5.13;;;1.90;;
55678;SDS011;41573;51.446;-2.018;2023-03-29T16:40:23;2.05;;;1.48;;
55678;SDS011;41573;51.446;-2.018;2023-03-29T16:42:49;5.05;;;1.92;;
55678;SDS011;41573;51.446;-2.018;2023-03-29T16:45:18;3.75;;;1.60;;
55678;SDS011;41573;51.446;-2.018;2023-03-29T16:47:44;2.38;;;1.55;;
55678;SDS011;41573;51.446;-2.018;2023-03-29T16:50:13;3.78;;;1.23;;
55678;SDS011;41573;51.446;-2.018;2023-03-29T16:52:43;3.33;;;1.65;;
55678;SDS011;41573;51.446;-2.018;2023-03-29T16:55:27;5.22;;;2.63;;
55678;SDS011;41573;51.446;-2.018;2023-03-29T16:57:55;2.45;;;1.52;;
55678;SDS011;41573;51.446;-2.018;2023-03-29T17:00:23;2.90;;;1.63;;
55678;SDS011;41573;51.446;-2.018;2023-03-29T17:02:49;3.35;;;1.50;;
55678;SDS011;41573;51.446;-2.018;2023-03-29T17:05:15;5.60;;;2.20;;
55678;SDS011;41573;51.446;-2.018;2023-03-29T17:07:41;5.18;;;1.55;;
55678;SDS011;41573;51.446;-2.018;2023-03-29T17:10:07;7.28;;;1.70;;
55678;SDS011;41573;51.446;-2.018;2023-03-29T17:12:34;4.95;;;1.90;;
55678;SDS011;41573;51.446;-2.018;2023-03-29T17:15:00;6.50;;;1.70;;
55678;SDS011;41573;51.446;-2.018;2023-03-29T17:17:26;4.25;;;1.50;;
55678;SDS011;41573;51.446;-2.018;2023-03-29T17:19:53;2.88;;;1.83;;
55678;SDS011;41573;51.446;-2.018;2023-03-29T17:22:22;2.67;;;1.50;;
55678;SDS011;41573;51.446;-2.018;2023-03-29T17:24:48;2.58;;;1.65;;
55678;SDS011;41573;51.446;-2.018;2023-03-29T17:27:20;5.45;;;1.33;;
55678;SDS011;41573;51.446;-2.018;2023-03-29T17:29:48;2.70;;;1.88;;
55678;SDS011;41573;51.446;-2.018;2023-03-29T17:32:13;3.53;;;2.60;;
55678;SDS011;41573;51.446;-2.018;2023-03-29T17:34:39;3.10;;;2.22;;
55678;SDS011;41573;51.446;-2.018;2023-03-29T17:37:05;4.55;;;2.03;;
55678;SDS011;41573;51.446;-2.018;2023-03-29T17:39:34;2.45;;;1.20;;
55678;SDS011;41573;51.446;-2.018;2023-03-29T17:42:01;2.60;;;1.10;;
55678;SDS011;41573;51.446;-2.018;2023-03-29T17:44:27;1.70;;;1.05;;
55678;SDS011;41573;51.446;-2.018;2023-03-29T17:46:53;5.40;;;1.35;;
55678;SDS011;41573;51.446;-2.018;2023-03-29T17:49:18;3.67;;;1.40;;
55678;SDS011;41573;51.446;-2.018;2023-03-29T17:51:44;4.43;;;1.58;;